Time;durP1;ratioP1;P1;durP2;ratioP2;P2;SDS_P1;SDS_P2;PMS_P1;PMS_P2;Temp;Humidity;BMP_temperature;BMP_pressure;BME280_temperature;BME280_humidity;BME280_pressure;Samples;Min_cycle;Max_cycle;Signal;HPM_P1;HPM_P2
2022/06/14 00:01:34;;;;;;;;;7.00;7.00;;;;;22.10;49.75;101909.97;5078271;27;46065;-81
2022/06/14 00:04:00;;;;;;;;;8.75;7.00;;;;;22.06;49.86;101900.22;5077528;28;46009;-80
2022/06/14 00:06:30;;;;;;;;;8.25;6.50;;;;;22.09;50.25;101921.38;5076625;28;45364;-80
2022/06/14 00:08:56;;;;;;;;;6.50;6.50;;;;;21.92;50.29;101889.47;5076151;27;45400;-81
2022/06/14 00:11:26;;;;;;;;;7.75;7.75;;;;;22.04;50.31;101908.97;5078140;27;45472;-81
2022/06/14 00:13:54;;;;;;;;;8.00;8.00;;;;;22.04;50.81;101911.63;5079421;28;46168;-81
2022/06/14 00:16:20;;;;;;;;;9.00;6.00;;;;;21.96;50.22;101903.59;5081814;28;45513;-78
2022/06/14 00:18:46;;;;;;;;;9.00;8.00;;;;;21.98;50.86;101908.88;5084767;28;45414;-77
2022/06/14 00:21:13;;;;;;;;;8.00;5.75;;;;;21.93;50.73;101914.97;5082966;28;45491;-78
2022/06/14 00:23:39;;;;;;;;;6.75;6.25;;;;;21.84;50.84;101899.03;5078577;28;45419;-78
2022/06/14 00:26:05;;;;;;;;;8.25;6.75;;;;;21.88;51.25;101910.50;5077901;27;45769;-79
2022/06/14 00:28:33;;;;;;;;;8.00;6.00;;;;;21.83;50.96;101902.53;5077871;28;45228;-77
2022/06/14 00:31:12;;;;;;;;;6.25;6.25;;;;;21.86;50.84;101910.50;5077580;28;45486;-79
2022/06/14 00:33:38;;;;;;;;;4.75;4.75;;;;;21.74;51.00;101899.75;5077302;28;46337;-79
2022/06/14 00:36:07;;;;;;;;;4.00;4.00;;;;;21.77;51.11;101918.22;5058937;28;45340;-79
2022/06/14 00:38:34;;;;;;;;;4.25;4.25;;;;;21.69;51.26;101904.03;5077116;27;45244;-79
2022/06/14 00:41:02;;;;;;;;;6.00;5.50;;;;;21.65;51.17;101906.63;5077778;28;45871;-78
2022/06/14 00:43:30;;;;;;;;;8.00;7.00;;;;;21.61;51.65;101906.53;5077639;28;46340;-79
2022/06/14 00:46:13;;;;;;;;;7.00;5.00;;;;;21.57;51.27;101902.94;5077580;28;45651;-80
2022/06/14 00:48:42;;;;;;;;;6.00;5.00;;;;;21.63;51.26;101916.28;5077802;28;45413;-81
2022/06/14 00:51:16;;;;;;;;;6.50;5.00;;;;;21.62;51.62;101908.31;5077537;28;45612;-80
2022/06/14 00:54:19;;;;;;;;;6.25;6.25;;;;;21.63;51.83;101908.38;5076770;27;45335;-79
2022/06/14 00:56:53;;;;;;;;;8.00;7.00;;;;;21.48;51.87;101890.53;5076945;28;45687;-80
2022/06/14 00:59:31;;;;;;;;;5.50;5.50;;;;;21.53;52.20;101909.03;5077592;27;45401;-80
2022/06/14 01:02:08;;;;;;;;;6.00;6.00;;;;;21.48;52.24;101898.44;5078883;27;45188;-79
2022/06/14 01:04:34;;;;;;;;;6.25;5.50;;;;;21.38;51.87;101887.69;5083211;27;45924;-79
2022/06/14 01:07:09;;;;;;;;;8.00;5.00;;;;;21.41;51.69;101898.28;5079695;28;45802;-78
2022/06/14 01:09:56;;;;;;;;;6.50;6.25;;;;;21.33;52.34;101884.97;5060220;28;45538;-80
2022/06/14 01:12:29;;;;;;;;;7.00;6.25;;;;;21.37;52.41;101892.09;5076280;28;45526;-79
2022/06/14 01:14:57;;;;;;;;;6.75;6.75;;;;;21.32;52.70;101891.09;5058802;28;47746;-79
2022/06/14 01:17:25;;;;;;;;;7.00;5.75;;;;;21.21;52.81;101880.41;5076763;28;45827;-77
2022/06/14 01:19:51;;;;;;;;;7.25;6.25;;;;;21.25;52.18;101883.97;5075965;27;45285;-80
2022/06/14 01:22:17;;;;;;;;;4.75;4.25;;;;;21.22;52.48;101890.03;5076881;27;45196;-79
2022/06/14 01:24:44;;;;;;;;;6.00;4.75;;;;;21.15;53.18;101890.81;5076831;28;45881;-80
2022/06/14 01:27:14;;;;;;;;;6.50;6.25;;;;;21.03;53.70;101873.03;5076422;27;45726;-78
2022/06/14 01:29:46;;;;;;;;;5.50;5.50;;;;;21.02;53.50;101879.16;5076830;27;45413;-79
2022/06/14 01:32:15;;;;;;;;;6.00;5.00;;;;;20.99;53.76;101877.38;5076405;28;45485;-79
2022/06/14 01:34:48;;;;;;;;;6.00;6.00;;;;;20.95;53.80;101872.88;5076262;28;45297;-79
2022/06/14 01:37:14;;;;;;;;;9.25;5.75;;;;;20.98;53.82;101877.31;5076276;28;45806;-79
2022/06/14 01:39:41;;;;;;;;;5.00;5.00;;;;;20.94;54.17;101872.88;5076697;28;45355;-81
2022/06/14 01:42:31;;;;;;;;;6.00;5.00;;;;;20.96;54.14;101879.03;5076400;27;45481;-79
2022/06/14 01:45:12;;;;;;;;;3.00;3.00;;;;;20.91;53.92;101875.44;5076277;27;45988;-80
2022/06/14 01:47:53;;;;;;;;;5.00;5.00;;;;;20.86;54.15;101862.19;5076568;27;45597;-80
2022/06/14 01:54:12;;;;;;;;;3.25;3.25;;;;;20.84;54.22;101867.41;5078557;27;45372;-79
2022/06/14 01:56:56;;;;;;;;;4.50;3.50;;;;;20.76;54.10;101862.88;5045806;27;45432;-79
2022/06/14 01:59:35;;;;;;;;;4.25;3.00;;;;;20.72;55.09;101860.13;5082663;27;45521;-80
2022/06/14 02:02:06;;;;;;;;;3.00;3.00;;;;;20.72;55.00;101861.91;5090643;27;45471;-79
2022/06/14 02:05:02;;;;;;;;;3.50;2.75;;;;;20.63;54.67;101845.91;5085041;27;45469;-80
2022/06/14 02:08:01;;;;;;;;;5.25;4.25;;;;;20.59;54.82;101839.69;5076166;27;45496;-80
2022/06/14 02:10:40;;;;;;;;;3.00;2.75;;;;;20.62;54.39;101841.53;5076481;27;45729;-80
2022/06/14 02:13:14;;;;;;;;;6.00;5.75;;;;;20.63;55.13;101852.06;5076992;27;46045;-80
2022/06/14 02:15:55;;;;;;;;;6.00;5.00;;;;;20.51;55.37;101836.94;5080379;27;45504;-80
2022/06/14 02:18:27;;;;;;;;;5.00;5.00;;;;;20.54;55.44;101847.50;5086422;27;45232;-79
2022/06/14 02:21:16;;;;;;;;;5.25;4.75;;;;;20.47;55.50;101845.59;5089725;27;45407;-79
2022/06/14 02:23:59;;;;;;;;;4.75;4.75;;;;;20.50;55.66;101848.31;5056044;28;45427;-80
2022/06/14 02:26:32;;;;;;;;;6.00;5.25;;;;;20.50;55.78;101855.28;5078862;27;45269;-81
2022/06/14 02:29:14;;;;;;;;;5.00;5.00;;;;;20.46;55.34;101856.13;5079985;27;45442;-81
2022/06/14 02:31:51;;;;;;;;;4.00;4.00;;;;;20.40;55.98;101859.50;5076988;27;45707;-79
2022/06/14 02:34:26;;;;;;;;;9.00;5.50;;;;;20.23;56.22;101828.47;5089498;27;45433;-80
2022/06/14 02:37:09;;;;;;;;;6.00;6.00;;;;;20.24;56.22;101840.75;5085327;27;45360;-79
2022/06/14 02:39:39;;;;;;;;;5.00;4.75;;;;;20.35;56.33;101864.66;5104781;27;45275;-80
2022/06/14 02:42:17;;;;;;;;;4.75;4.50;;;;;20.18;56.22;101834.47;5091318;27;45700;-80
2022/06/14 02:44:57;;;;;;;;;6.50;5.50;;;;;20.27;56.67;101855.69;5094927;27;45490;-79
2022/06/14 02:47:34;;;;;;;;;6.75;6.50;;;;;20.21;56.96;101852.97;5087606;27;45453;-80
2022/06/14 02:50:37;;;;;;;;;6.25;6.00;;;;;20.16;56.81;101844.06;5058934;28;46191;-79
2022/06/14 02:53:15;;;;;;;;;8.00;5.75;;;;;20.10;56.91;101848.34;5071731;28;45873;-82
2022/06/14 02:56:09;;;;;;;;;5.00;5.00;;;;;20.08;57.59;101843.91;5079352;28;45271;-80
2022/06/14 02:59:07;;;;;;;;;9.00;7.00;;;;;19.94;57.17;101814.69;5079362;28;45243;-80
2022/06/14 03:01:42;;;;;;;;;6.50;6.00;;;;;20.01;57.44;101832.38;5079071;27;46406;-80
2022/06/14 03:04:14;;;;;;;;;10.50;6.00;;;;;19.96;57.79;101828.75;5078639;28;45760;-78
2022/06/14 03:06:50;;;;;;;;;8.00;5.25;;;;;19.92;58.21;101832.19;5079648;27;45423;-80
2022/06/14 03:09:23;;;;;;;;;4.75;4.00;;;;;19.90;58.18;101826.00;5079541;28;45378;-80
2022/06/14 03:12:17;;;;;;;;;5.25;4.50;;;;;19.91;58.63;101827.78;5079087;28;45378;-81
2022/06/14 03:15:06;;;;;;;;;10.50;7.75;;;;;19.92;58.32;101833.06;5078443;27;45901;-79
2022/06/14 03:17:51;;;;;;;;;6.00;6.00;;;;;19.87;58.46;101816.28;5061055;28;45266;-81
2022/06/14 03:20:28;;;;;;;;;5.00;5.00;;;;;19.95;58.45;101822.63;5080977;28;45578;-79
2022/06/14 03:23:05;;;;;;;;;7.00;6.00;;;;;19.94;58.70;101831.34;5079872;27;45518;-79
2022/06/14 03:25:47;;;;;;;;;9.50;6.75;;;;;19.77;58.22;101809.91;5083029;28;45321;-80
2022/06/14 03:28:22;;;;;;;;;5.00;5.00;;;;;19.73;58.83;101807.19;5083879;27;45324;-81
2022/06/14 03:31:17;;;;;;;;;5.00;5.00;;;;;19.83;58.56;101816.13;5083137;27;45367;-79
2022/06/14 03:33:48;;;;;;;;;7.25;5.50;;;;;19.86;59.22;101832.94;5081850;27;45319;-82
2022/06/14 03:36:15;;;;;;;;;9.25;6.00;;;;;19.84;58.86;101824.09;5080602;28;45371;-80
2022/06/14 03:38:56;;;;;;;;;4.00;4.00;;;;;19.82;58.97;101815.28;5079073;28;45236;-81
2022/06/14 03:41:24;;;;;;;;;5.00;5.00;;;;;19.88;58.92;101825.06;5079842;28;45686;-81
2022/06/14 03:43:51;;;;;;;;;5.00;4.00;;;;;19.82;59.06;101814.38;5077581;28;45663;-81
2022/06/14 03:46:20;;;;;;;;;4.75;4.75;;;;;19.82;59.10;101830.13;5082181;27;45324;-79
2022/06/14 03:49:00;;;;;;;;;3.25;3.25;;;;;19.67;59.34;101805.31;5078359;28;45452;-79
2022/06/14 03:51:53;;;;;;;;;9.00;4.00;;;;;19.72;59.34;101815.91;5092851;27;45336;-80
2022/06/14 03:54:53;;;;;;;;;4.75;4.75;;;;;19.71;59.94;101822.00;5098755;27;45474;-79
2022/06/14 03:57:53;;;;;;;;;3.50;3.50;;;;;19.68;59.68;101828.09;5094524;27;45254;-80
2022/06/14 04:00:28;;;;;;;;;6.00;5.00;;;;;19.49;59.49;101792.63;5090822;27;45582;-81
2022/06/14 04:03:15;;;;;;;;;5.75;4.75;;;;;19.60;60.27;101822.66;5086931;27;45335;-80
2022/06/14 04:06:01;;;;;;;;;5.25;5.00;;;;;19.58;60.62;101824.34;5077946;28;45434;-80
2022/06/14 04:08:36;;;;;;;;;4.25;4.00;;;;;19.61;60.19;101815.66;5094222;27;45349;-81
2022/06/14 04:11:37;;;;;;;;;3.50;3.50;;;;;19.63;60.02;101822.72;5096660;27;45451;-81
2022/06/14 04:14:31;;;;;;;;;3.50;3.00;;;;;19.66;60.43;101829.78;5096058;27;45307;-80
2022/06/14 04:17:21;;;;;;;;;7.00;4.00;;;;;19.68;60.03;101817.59;5085748;27;45409;-82
2022/06/14 04:20:13;;;;;;;;;4.00;3.25;;;;;19.66;60.21;101824.53;5092456;27;45659;-82
2022/06/14 04:23:01;;;;;;;;;4.00;4.00;;;;;19.65;60.41;101828.00;5083667;27;45464;-84
2022/06/14 04:25:55;;;;;;;;;3.50;3.25;;;;;19.66;60.18;101824.53;5063076;27;45362;-81
2022/06/14 04:28:39;;;;;;;;;5.25;4.00;;;;;19.59;60.83;101826.13;5087062;27;45223;-81
2022/06/14 04:31:17;;;;;;;;;4.00;4.00;;;;;19.59;60.97;101823.50;5094518;27;45884;-81
2022/06/14 04:34:23;;;;;;;;;4.75;4.75;;;;;19.58;60.61;101821.72;5088799;27;45366;-80
2022/06/14 04:37:29;;;;;;;;;4.00;3.00;;;;;19.62;60.52;101820.06;5080132;27;45307;-79
2022/06/14 04:40:01;;;;;;;;;4.50;4.50;;;;;19.62;60.09;101823.59;5067798;27;45628;-79
2022/06/14 04:42:54;;;;;;;;;7.75;6.25;;;;;19.63;60.92;101819.19;5087230;27;45686;-79
2022/06/14 04:45:41;;;;;;;;;9.50;6.50;;;;;19.65;60.83;101820.13;5043341;27;45409;-79
2022/06/14 04:48:15;;;;;;;;;5.50;5.50;;;;;19.64;61.09;101819.25;5087655;27;45483;-82
2022/06/14 04:50:56;;;;;;;;;5.25;5.00;;;;;19.62;60.66;101812.16;5087748;27;45350;-81
2022/06/14 04:54:01;;;;;;;;;5.25;5.25;;;;;19.65;60.83;101812.25;5077077;28;45749;-79
2022/06/14 04:56:38;;;;;;;;;3.00;3.00;;;;;19.58;60.81;101792.81;5031414;28;45513;-78
2022/06/14 04:59:26;;;;;;;;;5.00;5.00;;;;;19.66;60.86;101816.66;5063216;28;45322;-79
2022/06/14 05:02:00;;;;;;;;;4.00;4.00;;;;;19.57;60.77;101803.31;5093407;27;45476;-78
2022/06/14 05:04:32;;;;;;;;;6.00;5.00;;;;;19.55;61.01;101808.50;5077361;27;45253;-78
2022/06/14 05:07:05;;;;;;;;;6.50;5.00;;;;;19.54;61.17;101812.00;5083077;27;45343;-79
2022/06/14 05:09:39;;;;;;;;;5.75;4.75;;;;;19.48;60.72;101809.22;5088044;27;45445;-79
2022/06/14 05:12:28;;;;;;;;;4.00;4.00;;;;;19.49;61.76;101817.13;5087079;27;45499;-79
2022/06/14 05:15:05;;;;;;;;;6.00;4.50;;;;;19.52;61.08;101815.44;5037965;28;45426;-78
2022/06/14 05:18:09;;;;;;;;;5.00;4.00;;;;;19.53;61.21;101817.22;5066251;27;45336;-78
2022/06/14 05:20:42;;;;;;;;;5.50;4.00;;;;;19.47;61.29;101807.44;5014542;28;45426;-79
2022/06/14 05:23:22;;;;;;;;;5.25;4.00;;;;;19.42;61.79;101817.84;5013858;28;45993;-78
2022/06/14 05:26:14;;;;;;;;;6.00;3.50;;;;;19.36;61.70;101807.19;5048271;28;45740;-78
2022/06/14 05:29:12;;;;;;;;;5.50;5.00;;;;;19.43;62.16;101811.75;5074518;28;45366;-80
2022/06/14 05:32:08;;;;;;;;;5.75;3.25;;;;;19.49;62.32;101813.63;5053272;27;45251;-79
2022/06/14 05:34:36;;;;;;;;;5.00;3.00;;;;;19.53;61.80;101814.59;5076241;28;45398;-79
2022/06/14 05:37:30;;;;;;;;;5.00;5.00;;;;;19.44;61.65;101792.50;5075657;28;45785;-79
2022/06/14 05:40:22;;;;;;;;;3.25;3.25;;;;;19.54;61.59;101821.63;5073713;28;45375;-78
2022/06/14 05:43:16;;;;;;;;;4.50;4.25;;;;;19.54;62.19;101819.91;5074084;28;45638;-80
2022/06/14 05:45:55;;;;;;;;;7.50;6.25;;;;;19.55;61.73;101816.38;5060271;28;46720;-79
2022/06/14 05:48:30;;;;;;;;;5.00;5.00;;;;;19.54;62.17;101817.28;5063345;28;45404;-77
2022/06/14 05:51:00;;;;;;;;;6.25;5.00;;;;;19.54;62.11;101811.09;5079915;28;45530;-81
2022/06/14 05:53:46;;;;;;;;;5.75;5.00;;;;;19.56;62.09;101815.53;5079433;27;45557;-79
2022/06/14 05:56:18;;;;;;;;;4.75;4.75;;;;;19.59;62.46;101825.25;5084157;27;46323;-80
2022/06/14 05:58:49;;;;;;;;;6.00;4.50;;;;;19.61;62.21;101823.53;5045706;28;45296;-79
2022/06/14 06:01:22;;;;;;;;;8.25;6.00;;;;;19.62;62.65;101812.16;5077269;28;45449;-83
2022/06/14 06:04:03;;;;;;;;;7.50;6.50;;;;;19.69;62.50;101807.94;5080958;28;45262;-78
2022/06/14 06:06:37;;;;;;;;;5.25;4.25;;;;;19.68;62.51;101793.03;5074992;27;47173;-78
2022/06/14 06:09:11;;;;;;;;;7.00;5.75;;;;;19.72;61.98;101801.03;5079192;28;45757;-77
2022/06/14 06:11:45;;;;;;;;;5.00;4.00;;;;;19.83;61.86;101803.00;5063585;27;45457;-79
2022/06/14 06:14:17;;;;;;;;;5.75;5.00;;;;;19.90;61.53;101810.22;5080005;28;45838;-82
2022/06/14 06:17:04;;;;;;;;;4.75;4.75;;;;;19.97;61.84;101798.97;5079509;28;46389;-84
2022/06/14 06:19:39;;;;;;;;;3.75;3.75;;;;;20.02;61.10;101805.25;5079658;28;45695;-81
2022/06/14 06:22:36;;;;;;;;;5.00;4.25;;;;;20.05;61.20;101805.28;5082520;27;45447;-82
2022/06/14 06:25:13;;;;;;;;;9.00;6.25;;;;;20.06;60.63;101801.81;5075065;27;45640;-80
2022/06/14 06:27:50;;;;;;;;;2.75;2.75;;;;;20.05;60.71;101784.25;5060124;27;46823;-80
2022/06/14 06:30:38;;;;;;;;;7.50;7.50;;;;;20.08;59.86;101778.19;5058980;28;45603;-81
2022/06/14 06:33:06;;;;;;;;;6.00;5.00;;;;;20.15;60.27;101776.56;5054733;27;45244;-80
2022/06/14 06:35:49;;;;;;;;;4.00;4.00;;;;;20.15;60.41;101777.47;5088521;28;45441;-83
2022/06/14 06:38:50;;;;;;;;;6.50;5.75;;;;;20.27;60.10;101795.22;5089034;28;45386;-83
2022/06/14 06:44:16;;;;;;;;;4.25;4.25;;;;;20.28;59.29;101786.47;5085064;27;45425;-87
2022/06/14 06:46:51;;;;;;;;;5.25;5.25;;;;;20.42;59.81;101794.63;5080345;28;45363;-78
2022/06/14 06:49:29;;;;;;;;;4.00;3.00;;;;;20.33;59.12;101774.31;5080072;27;46392;-80
2022/06/14 06:52:01;;;;;;;;;5.50;5.00;;;;;20.48;58.34;101786.88;5079784;27;45557;-78
2022/06/14 06:54:49;;;;;;;;;10.25;6.00;;;;;20.47;58.32;101790.38;5069316;27;45409;-77
2022/06/14 06:57:23;;;;;;;;;4.00;4.00;;;;;20.47;58.35;101781.56;5059792;28;45391;-81
2022/06/14 06:59:52;;;;;;;;;5.50;4.50;;;;;20.50;58.36;101787.81;5061990;27;46345;-82
2022/06/14 07:02:26;;;;;;;;;7.00;6.25;;;;;20.49;57.77;101793.00;5082705;27;45223;-83
2022/06/14 07:05:06;;;;;;;;;5.00;5.00;;;;;20.54;58.27;101794.00;5071369;27;45501;-79
2022/06/14 07:07:58;;;;;;;;;6.25;5.25;;;;;20.59;57.43;101787.06;5059347;28;45649;-79
2022/06/14 07:10:31;;;;;;;;;7.25;6.00;;;;;20.62;58.18;101775.75;5050138;28;46307;-79
2022/06/14 07:13:20;;;;;;;;;6.25;5.00;;;;;20.70;57.90;101779.41;5068568;27;46035;-79
2022/06/14 07:15:45;;;;;;;;;6.00;4.75;;;;;20.76;57.77;101776.03;5047959;27;45422;-78
2022/06/14 07:18:33;;;;;;;;;5.00;5.00;;;;;20.84;57.93;101777.03;5077448;27;45581;-79
2022/06/14 07:21:06;;;;;;;;;5.50;5.25;;;;;20.88;56.32;101773.63;5062023;28;45453;-78
2022/06/14 07:23:49;;;;;;;;;5.50;5.00;;;;;20.98;56.61;101775.53;5066280;28;45481;-79
2022/06/14 07:26:23;;;;;;;;;3.75;3.75;;;;;21.05;57.03;101767.75;5078557;28;45355;-79
2022/06/14 07:29:06;;;;;;;;;6.00;4.50;;;;;21.00;57.17;101742.19;5056747;28;45263;-79
2022/06/14 07:31:36;;;;;;;;;7.75;5.00;;;;;21.17;56.31;101762.69;5083428;27;45430;-81
2022/06/14 07:34:02;;;;;;;;;7.25;5.25;;;;;21.21;56.78;101760.97;5064952;27;45507;-78
2022/06/14 07:36:31;;;;;;;;;8.75;5.25;;;;;21.27;56.06;101759.31;5088922;27;45355;-79
2022/06/14 07:38:59;;;;;;;;;12.75;4.75;;;;;21.31;55.77;101755.88;5057679;28;45483;-78
2022/06/14 07:41:37;;;;;;;;;8.00;5.25;;;;;21.33;55.50;101756.78;5078106;27;45212;-77
2022/06/14 07:44:08;;;;;;;;;6.50;6.00;;;;;21.32;55.61;101749.75;5077522;27;45436;-78
2022/06/14 07:46:42;;;;;;;;;3.75;3.75;;;;;21.29;55.77;101740.91;5081610;27;45319;-78
2022/06/14 07:49:20;;;;;;;;;4.00;3.25;;;;;21.34;55.89;101747.13;5063969;28;45507;-80
2022/06/14 07:51:53;;;;;;;;;4.00;4.00;;;;;21.40;55.58;101756.88;5084053;27;45749;-79
2022/06/14 07:54:33;;;;;;;;;6.75;5.00;;;;;21.44;54.71;101754.31;5056922;28;45677;-78
2022/06/14 07:57:12;;;;;;;;;7.00;5.75;;;;;21.45;55.13;101740.28;5074901;27;45596;-78
2022/06/14 07:59:46;;;;;;;;;5.25;5.00;;;;;21.53;55.12;101747.41;5080993;27;45633;-78
2022/06/14 08:02:30;;;;;;;;;5.50;4.00;;;;;21.51;55.43;101739.50;5077173;27;45294;-77
2022/06/14 08:05:15;;;;;;;;;5.50;5.00;;;;;21.63;54.56;101744.06;5081309;27;45729;-78
2022/06/14 08:07:45;;;;;;;;;5.00;5.00;;;;;21.69;54.41;101732.72;5082360;27;45251;-78
2022/06/14 08:10:32;;;;;;;;;6.25;4.25;;;;;21.72;53.98;101727.50;5072778;27;45634;-77
2022/06/14 08:13:02;;;;;;;;;6.50;5.50;;;;;21.82;53.26;101724.13;5044165;28;46001;-78
2022/06/14 08:15:36;;;;;;;;;4.25;4.00;;;;;21.88;52.49;101729.47;5077006;27;45335;-78
2022/06/14 08:18:15;;;;;;;;;5.50;3.75;;;;;21.88;52.43;101724.19;5062212;28;45436;-78
2022/06/14 08:20:55;;;;;;;;;8.00;5.50;;;;;21.90;53.13;101718.94;5088038;27;45476;-77
2022/06/14 08:23:34;;;;;;;;;5.50;4.25;;;;;21.92;52.76;101723.38;5075319;27;47917;-77
2022/06/14 08:26:12;;;;;;;;;4.00;4.00;;;;;21.98;52.60;101725.19;5078219;27;45886;-77
2022/06/14 08:28:47;;;;;;;;;4.75;4.50;;;;;22.03;52.73;101714.69;5076279;27;45436;-78
2022/06/14 08:31:30;;;;;;;;;4.00;4.00;;;;;22.12;52.27;101720.06;5082768;27;45681;-78
2022/06/14 08:34:10;;;;;;;;;7.00;5.50;;;;;22.18;51.18;101714.88;5063522;27;46245;-77
2022/06/14 08:36:44;;;;;;;;;5.25;4.00;;;;;22.16;50.86;101692.88;5079251;27;45796;-78
2022/06/14 08:39:17;;;;;;;;;7.75;5.50;;;;;22.22;50.26;101695.56;5081469;27;45466;-80
2022/06/14 08:41:51;;;;;;;;;6.25;5.50;;;;;22.34;50.40;101707.13;5077230;28;45394;-80
2022/06/14 08:44:21;;;;;;;;;4.25;4.25;;;;;22.40;50.37;101710.75;5059174;28;45915;-80
2022/06/14 08:46:49;;;;;;;;;8.00;4.50;;;;;22.47;49.93;101709.06;5077152;28;45236;-79
2022/06/14 08:49:55;;;;;;;;;7.00;5.00;;;;;22.54;49.18;101710.88;5081869;28;45234;-80
2022/06/14 08:52:48;;;;;;;;;5.75;5.00;;;;;22.59;48.84;101708.28;5080766;27;45955;-77
2022/06/14 08:56:01;;;;;;;;;5.00;4.00;;;;;22.60;48.49;101701.25;5076860;28;46318;-80
2022/06/14 08:59:07;;;;;;;;;4.00;4.00;;;;;22.63;48.22;101696.88;5089427;27;45192;-80
2022/06/14 09:01:51;;;;;;;;;4.25;4.25;;;;;22.66;47.37;101701.28;5061725;28;45399;-81
2022/06/14 09:04:48;;;;;;;;;6.00;4.00;;;;;22.70;47.68;101703.09;5077716;28;45351;-80
2022/06/14 09:07:48;;;;;;;;;6.75;5.00;;;;;22.73;47.97;101696.09;5075864;28;45592;-75
2022/06/14 09:10:54;;;;;;;;;8.00;4.75;;;;;22.79;47.53;101699.63;5081653;27;45927;-79
2022/06/14 09:13:47;;;;;;;;;4.75;2.50;;;;;22.83;47.36;101697.06;5058770;28;45446;-78
2022/06/14 09:16:36;;;;;;;;;6.25;4.00;;;;;22.89;47.10;101709.44;5076536;27;45792;-79
2022/06/14 09:19:24;;;;;;;;;4.75;4.75;;;;;22.94;46.28;101689.22;5076636;27;46707;-79
2022/06/14 09:22:16;;;;;;;;;5.00;3.50;;;;;22.95;46.46;101698.91;5076299;28;45373;-80
2022/06/14 09:25:10;;;;;;;;;5.00;4.50;;;;;23.00;45.72;101702.44;5058242;28;45309;-81
2022/06/14 09:27:48;;;;;;;;;7.50;4.75;;;;;23.01;45.40;101700.72;5076151;27;45420;-79
2022/06/14 09:30:38;;;;;;;;;4.00;3.75;;;;;23.00;45.29;101689.25;5078374;27;46470;-78
2022/06/14 09:33:15;;;;;;;;;5.50;3.00;;;;;23.02;44.68;101698.06;5076041;27;45799;-78
2022/06/14 09:36:14;;;;;;;;;3.00;3.00;;;;;23.00;45.06;101693.66;5078148;27;45190;-77
2022/06/14 09:39:14;;;;;;;;;5.00;5.00;;;;;22.92;45.37;101682.16;5083116;27;45457;-77
2022/06/14 09:41:58;;;;;;;;;5.75;4.00;;;;;22.99;45.32;101689.25;5087489;27;46366;-78
2022/06/14 09:44:59;;;;;;;;;5.50;5.00;;;;;23.00;44.97;101693.66;5080153;28;45389;-77
2022/06/14 09:48:02;;;;;;;;;4.50;4.50;;;;;23.02;45.22;101695.44;5082780;27;45254;-80
2022/06/14 09:50:34;;;;;;;;;4.50;4.25;;;;;23.03;44.83;101688.41;5063065;28;45610;-76
2022/06/14 09:53:56;;;;;;;;;4.00;3.50;;;;;23.03;45.60;101691.91;5091618;27;45386;-78
2022/06/14 09:57:00;;;;;;;;;5.00;5.00;;;;;23.01;45.60;101685.72;4992971;28;45398;-78
2022/06/14 10:00:04;;;;;;;;;4.00;4.00;;;;;23.09;45.41;101698.13;4944989;28;45482;-78
2022/06/14 10:02:35;;;;;;;;;4.50;4.50;;;;;23.12;45.59;101693.75;5071922;27;45408;-79
2022/06/14 10:05:38;;;;;;;;;5.25;4.00;;;;;23.14;45.51;101686.72;5083505;28;46421;-81
2022/06/14 10:08:16;;;;;;;;;5.00;5.00;;;;;23.18;45.22;101684.97;5059860;28;45758;-81
2022/06/14 10:11:11;;;;;;;;;6.50;5.50;;;;;23.21;45.05;101677.13;5073588;28;45386;-84
2022/06/14 10:13:58;;;;;;;;;9.00;6.00;;;;;23.27;44.65;101676.28;5075078;28;45313;-78
2022/06/14 10:16:50;;;;;;;;;5.50;4.00;;;;;23.29;44.44;101666.56;5074875;27;46244;-82
2022/06/14 10:19:30;;;;;;;;;3.50;3.50;;;;;23.34;44.13;101676.28;5077968;28;45453;-79
2022/06/14 10:22:14;;;;;;;;;5.00;4.25;;;;;23.38;43.79;101679.81;5053069;28;45368;-80
2022/06/14 10:25:15;;;;;;;;;6.50;5.50;;;;;23.42;44.46;101678.09;5076679;27;45514;-80
2022/06/14 10:28:14;;;;;;;;;2.00;1.00;;;;;23.44;44.34;101676.31;5069142;28;45610;-80
2022/06/14 10:31:10;;;;;;;;;5.25;5.25;;;;;23.50;43.62;101671.97;5061647;28;45445;-84
2022/06/14 10:33:59;;;;;;;;;5.00;5.00;;;;;23.56;43.68;101670.25;5078362;28;45739;-81
2022/06/14 10:36:52;;;;;;;;;5.50;4.50;;;;;23.60;43.55;101664.97;5060754;28;45593;-83
2022/06/14 10:39:23;;;;;;;;;7.25;6.25;;;;;23.64;43.46;101663.22;5078477;27;46091;-82
2022/06/14 10:42:17;;;;;;;;;5.25;3.75;;;;;23.60;44.50;101657.03;5078112;28;45775;-82
2022/06/14 10:45:04;;;;;;;;;8.25;8.00;;;;;23.68;44.21;101656.19;5057905;28;45353;-81
2022/06/14 10:48:07;;;;;;;;;6.25;5.00;;;;;23.69;44.08;101650.91;5076420;28;45198;-82
2022/06/14 10:50:55;;;;;;;;;5.00;5.00;;;;;23.72;43.58;101640.31;5079416;27;45739;-81
2022/06/14 10:53:33;;;;;;;;;4.00;4.00;;;;;23.75;43.26;101639.47;5076439;27;45804;-82
2022/06/14 10:56:18;;;;;;;;;9.00;8.00;;;;;23.78;44.08;101636.81;5078581;27;45419;-82
2022/06/14 10:58:57;;;;;;;;;13.25;11.25;;;;;23.83;43.46;101637.72;5061100;28;45358;-82
2022/06/14 11:01:41;;;;;;;;;7.00;5.00;;;;;23.89;43.21;101634.22;5080528;28;45442;-82
2022/06/14 11:04:15;;;;;;;;;7.25;6.00;;;;;23.93;43.35;101626.28;5082195;28;45716;-82
2022/06/14 11:06:59;;;;;;;;;7.75;5.75;;;;;23.96;43.50;101636.03;5081350;28;45280;-82
2022/06/14 11:09:45;;;;;;;;;6.50;5.50;;;;;23.99;43.13;101624.56;5079229;28;45414;-82
2022/06/14 11:12:20;;;;;;;;;9.25;8.00;;;;;23.95;43.73;101621.03;5086604;27;45544;-78
2022/06/14 11:15:01;;;;;;;;;8.50;6.25;;;;;23.98;43.53;101620.16;5067821;28;45737;-82
2022/06/14 11:17:29;;;;;;;;;7.00;4.25;;;;;24.01;43.95;101612.22;5069029;28;45452;-78
2022/06/14 11:20:05;;;;;;;;;6.50;5.00;;;;;24.03;43.85;101607.81;5067654;28;45359;-77
2022/06/14 11:22:41;;;;;;;;;9.50;8.00;;;;;24.06;43.70;101595.47;5062606;27;45558;-79
2022/06/14 11:25:24;;;;;;;;;8.75;6.75;;;;;24.12;43.81;101599.91;5079407;27;45203;-79
2022/06/14 11:27:56;;;;;;;;;8.50;6.50;;;;;24.20;43.57;101584.91;5063698;28;45423;-84
2022/06/14 11:30:31;;;;;;;;;11.25;10.00;;;;;24.23;43.27;101582.25;5048763;28;45422;-88
2022/06/14 11:33:24;;;;;;;;;8.50;7.00;;;;;24.26;43.65;101586.66;5073502;27;46883;-90
2022/06/14 11:35:59;;;;;;;;;5.50;5.50;;;;;24.26;42.34;101579.63;5073993;27;45826;-90
2022/06/14 11:38:44;;;;;;;;;7.00;7.00;;;;;24.17;41.79;101565.50;5083013;28;45320;-89
2022/06/14 11:41:12;;;;;;;;;6.50;5.50;;;;;24.33;41.71;101575.22;5076259;27;45565;-85
2022/06/14 11:43:48;;;;;;;;;6.50;6.00;;;;;24.37;41.80;101573.44;5050004;27;46853;-84
2022/06/14 11:46:32;;;;;;;;;6.25;5.50;;;;;24.44;41.67;101563.75;5063736;28;45547;-85
2022/06/14 11:49:09;;;;;;;;;6.00;5.25;;;;;24.51;42.01;101566.34;5061054;28;45357;-86
2022/06/14 11:51:48;;;;;;;;;4.50;4.00;;;;;24.49;41.87;101533.75;5083486;27;45435;-91
2022/06/14 11:54:20;;;;;;;;;7.25;6.00;;;;;24.67;41.03;101558.41;5086803;27;46859;-89
2022/06/14 11:57:14;;;;;;;;;4.50;4.50;;;;;24.75;41.01;101548.72;5089573;27;45383;-87
2022/06/14 12:00:05;;;;;;;;;6.75;4.50;;;;;24.83;40.28;101541.66;5095513;27;45461;-87
2022/06/14 12:02:45;;;;;;;;;7.00;6.00;;;;;24.96;40.35;101545.13;5085590;27;45206;-91
2022/06/14 12:05:46;;;;;;;;;6.25;5.00;;;;;25.03;41.04;101544.22;5095978;27;45633;-89
2022/06/14 12:08:31;;;;;;;;;5.00;5.00;;;;;25.14;40.73;101537.97;5066511;28;45426;-87
2022/06/14 12:11:22;;;;;;;;;7.00;5.25;;;;;25.20;40.08;101540.63;5061321;28;45416;-90
2022/06/14 12:14:38;;;;;;;;;4.75;4.75;;;;;25.27;40.26;101542.34;5068166;28;45509;-86
2022/06/14 12:17:25;;;;;;;;;9.00;5.50;;;;;25.32;39.58;101543.19;5062576;28;47592;-85
2022/06/14 12:20:01;;;;;;;;;7.25;7.25;;;;;25.37;39.53;101545.84;5068822;28;45700;-87
2022/06/14 12:22:37;;;;;;;;;6.00;4.00;;;;;25.42;39.34;101544.06;5104149;27;45381;-86
2022/06/14 12:28:19;;;;;;;;;6.00;6.00;;;;;25.48;39.28;101516.63;5081846;28;45969;-88
2022/06/14 12:30:48;;;;;;;;;7.00;6.00;;;;;25.56;39.38;101524.56;5085679;27;45421;-87
2022/06/14 12:33:22;;;;;;;;;3.50;3.50;;;;;25.49;39.12;101495.41;5069990;27;45301;-89
2022/06/14 12:36:06;;;;;;;;;7.75;6.00;;;;;25.65;39.30;101492.66;5066592;28;45312;-88
2022/06/14 12:38:38;;;;;;;;;3.00;3.00;;;;;25.67;38.70;101471.44;5080531;27;46957;-87